createdAt,value
2019-04-21T00:02:26.512Z,102759.57
2019-04-21T00:05:49.892Z,102762.19
2019-04-21T00:08:57.937Z,102762.09
2019-04-21T00:12:05.721Z,102758.55
2019-04-21T00:14:57.914Z,102750.19
2019-04-21T00:18:01.077Z,102752.29
2019-04-21T00:21:11.724Z,102751.09
2019-04-21T00:24:24.238Z,102747.28
2019-04-21T00:27:32.426Z,102745.42
2019-04-21T00:30:44.446Z,102747.55
2019-04-21T00:33:33.516Z,102746.20
2019-04-21T00:36:47.249Z,102743.62
2019-04-21T00:40:03.753Z,102743.23
2019-04-21T00:43:05.069Z,102741.85
2019-04-21T00:46:04.758Z,102740.17
2019-04-21T00:49:18.318Z,102738.94
2019-04-21T00:53:00.775Z,102741.75
2019-04-21T00:56:08.627Z,102736.26
2019-04-21T00:59:17.990Z,102729.92
2019-04-21T01:02:20.228Z,102724.06
2019-04-21T01:05:22.537Z,102723.71
2019-04-21T01:08:28.223Z,102723.27
2019-04-21T01:11:38.995Z,102720.95
2019-04-21T01:14:49.692Z,102722.69
2019-04-21T01:17:51.874Z,102718.28
2019-04-21T01:20:35.802Z,102719.47
2019-04-21T01:23:40.332Z,102714.61
2019-04-21T01:26:56.776Z,102718.50
2019-04-21T01:30:14.303Z,102718.79
2019-04-21T01:33:21.567Z,102723.12
2019-04-21T01:36:18.346Z,102723.52
2019-04-21T01:39:39.338Z,102710.33
2019-04-21T01:43:13.670Z,102709.50
2019-04-21T01:46:13.917Z,102719.59
2019-04-21T01:49:21.887Z,102714.16
2019-04-21T01:52:38.236Z,102714.45
2019-04-21T01:56:01.868Z,102714.16
2019-04-21T01:58:54.004Z,102720.00
2019-04-21T02:02:16.016Z,102705.88
2019-04-21T02:05:27.030Z,102705.72
2019-04-21T02:08:21.555Z,102708.60
2019-04-21T02:11:37.318Z,102711.94
2019-04-21T02:14:45.855Z,102706.66
2019-04-21T02:17:49.822Z,102713.73
2019-04-21T02:20:42.268Z,102705.34
2019-04-21T02:24:05.703Z,102702.16
2019-04-21T02:27:07.539Z,102700.42
2019-04-21T02:30:22.392Z,102699.62
2019-04-21T02:33:39.255Z,102693.63
2019-04-21T02:36:40.424Z,102695.59
2019-04-21T02:39:51.376Z,102687.34
2019-04-21T02:45:58.644Z,102691.66
2019-04-21T02:52:14.242Z,102682.12
2019-04-21T02:55:07.342Z,102679.77
2019-04-21T02:58:32.012Z,102683.02
2019-04-21T03:08:25.322Z,102666.09
2019-04-21T03:11:21.999Z,102665.72
2019-04-21T03:17:43.839Z,102659.86
2019-04-21T03:20:44.288Z,102652.87
2019-04-21T03:23:54.086Z,102647.84
2019-04-21T03:27:14.284Z,102646.91
2019-04-21T03:39:29.508Z,102636.29
2019-04-21T03:42:33.806Z,102631.89
2019-04-21T03:48:40.691Z,102621.45
2019-04-21T03:55:50.990Z,102616.95
2019-04-21T03:58:44.955Z,102620.66
2019-04-21T04:01:58.090Z,102614.56
2019-04-21T04:05:42.341Z,102607.98
2019-04-21T04:08:47.573Z,102620.33
2019-04-21T04:11:50.512Z,102609.97
2019-04-21T04:14:40.773Z,102615.91
2019-04-21T04:17:49.936Z,102604.73
2019-04-21T04:21:04.480Z,102605.11
2019-04-21T04:24:07.362Z,102601.12
2019-04-21T04:27:20.949Z,102597.86
2019-04-21T04:30:22.403Z,102597.55
2019-04-21T04:40:10.418Z,102597.31
2019-04-21T04:43:13.201Z,102589.17
2019-04-21T04:46:18.427Z,102589.98
2019-04-21T04:49:40.017Z,102583.12
2019-04-21T04:55:43.424Z,102577.59
2019-04-21T05:05:07.036Z,102569.95
2019-04-21T05:08:07.631Z,102577.23
2019-04-21T05:11:28.391Z,102574.02
2019-04-21T05:17:31.000Z,102577.77
2019-04-21T05:20:41.828Z,102574.02
2019-04-21T05:23:25.648Z,102561.08
2019-04-21T05:26:29.910Z,102569.34
2019-04-21T05:29:53.961Z,102566.09
2019-04-21T05:33:05.729Z,102557.92
2019-04-21T05:36:11.032Z,102557.22
2019-04-21T05:39:34.746Z,102554.73
2019-04-21T05:42:44.138Z,102556.34
2019-04-21T05:45:51.937Z,102554.45
2019-04-21T05:48:57.910Z,102553.33
2019-04-21T05:52:03.739Z,102542.21
2019-04-21T05:55:18.064Z,102537.26
2019-04-21T05:58:21.400Z,102532.67
2019-04-21T06:01:34.490Z,102533.80
2019-04-21T06:04:51.732Z,102530.53
2019-04-21T06:07:40.650Z,102529.91
2019-04-21T06:10:52.493Z,102531.50
2019-04-21T06:14:02.576Z,102524.66
2019-04-21T06:17:04.515Z,102521.42
2019-04-21T06:20:07.922Z,102516.78
2019-04-21T06:23:19.092Z,102511.30
2019-04-21T06:29:33.333Z,102509.55
2019-04-21T06:32:49.127Z,102509.31
2019-04-21T06:36:11.394Z,102505.52
2019-04-21T06:39:11.653Z,102507.45
2019-04-21T06:42:02.536Z,102505.02
2019-04-21T06:45:13.029Z,102502.65
2019-04-21T06:48:30.170Z,102495.83
2019-04-21T06:51:28.890Z,102489.44
2019-04-21T06:54:35.644Z,102482.97
2019-04-21T06:57:39.975Z,102484.86
2019-04-21T07:00:42.459Z,102483.09
2019-04-21T07:04:03.652Z,102483.98
2019-04-21T07:06:59.243Z,102476.90
2019-04-21T07:10:10.383Z,102474.22
2019-04-21T07:13:15.217Z,102473.75
2019-04-21T07:16:25.710Z,102472.81
2019-04-21T07:22:37.541Z,102470.06
2019-04-21T07:25:41.211Z,102471.42
2019-04-21T07:28:56.348Z,102467.28
2019-04-21T07:31:59.248Z,102468.08
2019-04-21T07:35:03.624Z,102474.27
2019-04-21T07:38:08.361Z,102468.95
2019-04-21T07:41:11.328Z,102466.72
2019-04-21T07:44:15.003Z,102467.03
2019-04-21T07:47:26.783Z,102458.62
2019-04-21T07:50:57.830Z,102460.31
2019-04-21T07:54:13.359Z,102453.84
2019-04-21T07:57:03.991Z,102447.27
2019-04-21T08:03:30.004Z,102448.05
2019-04-21T08:06:33.722Z,102448.05
2019-04-21T08:09:40.752Z,102441.20
2019-04-21T08:12:43.191Z,102439.42
2019-04-21T08:15:52.919Z,102430.47
2019-04-21T08:19:01.280Z,102442.05
2019-04-21T08:22:11.002Z,102436.56
2019-04-21T08:25:12.082Z,102436.56
2019-04-21T08:28:22.489Z,102421.93
2019-04-21T08:31:34.370Z,102421.93
2019-04-21T08:34:33.919Z,102425.08
2019-04-21T08:37:37.069Z,102425.08
2019-04-21T08:40:49.104Z,102417.40
2019-04-21T08:43:52.682Z,102421.14
2019-04-21T08:47:12.864Z,102421.14
2019-04-21T08:50:15.307Z,102412.26
2019-04-21T08:53:27.415Z,102399.02
2019-04-21T08:56:49.575Z,102399.02
2019-04-21T09:00:22.934Z,102398.77
2019-04-21T09:10:41.009Z,102393.39
2019-04-21T09:13:42.990Z,102385.95
2019-04-21T09:16:49.118Z,102387.30
2019-04-21T09:20:13.833Z,102383.77
2019-04-21T09:23:17.224Z,102386.84
2019-04-21T09:26:18.561Z,102381.50
2019-04-21T09:29:17.241Z,102369.59
2019-04-21T09:32:19.652Z,102372.52
2019-04-21T09:35:20.819Z,102371.70
2019-04-21T09:38:33.801Z,102368.20
2019-04-21T09:41:34.792Z,102368.20
2019-04-21T09:44:41.007Z,102370.33
2019-04-21T09:47:52.255Z,102366.59
2019-04-21T09:50:50.911Z,102368.67
2019-04-21T09:54:01.874Z,102359.11
2019-04-21T09:57:07.736Z,102351.92
2019-04-21T10:00:15.216Z,102356.34
2019-04-21T10:03:17.289Z,102344.86
2019-04-21T10:06:21.050Z,102345.92
2019-04-21T10:09:26.434Z,102340.47
2019-04-21T10:12:30.799Z,102340.12
2019-04-21T10:15:35.576Z,102334.87
2019-04-21T10:18:40.342Z,102333.23
2019-04-21T10:21:44.813Z,102327.31
2019-04-21T10:24:49.329Z,102319.02
2019-04-21T10:27:54.940Z,102312.68
2019-04-21T10:31:00.670Z,102310.86
2019-04-21T10:34:05.353Z,102310.86
2019-04-21T10:37:11.118Z,102315.14
2019-04-21T10:40:16.208Z,102305.97
2019-04-21T10:43:23.698Z,102306.33
2019-04-21T10:46:26.864Z,102308.56
2019-04-21T10:49:31.254Z,102296.70
2019-04-21T10:52:53.572Z,102298.89
2019-04-21T10:56:13.564Z,102294.61
2019-04-21T10:59:08.039Z,102293.73
2019-04-21T11:02:18.965Z,102291.27
2019-04-21T11:05:24.846Z,102285.95
2019-04-21T11:08:34.081Z,102284.75
2019-04-21T11:11:35.569Z,102279.70
2019-04-21T11:14:41.070Z,102277.82
2019-04-21T11:17:48.858Z,102266.95
2019-04-21T11:20:53.440Z,102265.71
2019-04-21T11:23:58.496Z,102263.73
2019-04-21T11:27:04.530Z,102265.77
2019-04-21T11:30:09.640Z,102256.66
2019-04-21T11:33:15.371Z,102260.01
2019-04-21T11:36:21.501Z,102251.28
2019-04-21T11:39:39.263Z,102244.73
2019-04-21T11:42:38.087Z,102255.80
2019-04-21T11:45:42.763Z,102242.97
2019-04-21T11:48:48.374Z,102247.91
2019-04-21T11:51:53.222Z,102259.16
2019-04-21T11:54:58.577Z,102246.44
2019-04-21T11:58:03.574Z,102239.63
2019-04-21T12:01:09.581Z,102238.88
2019-04-21T12:04:15.964Z,102238.42
2019-04-21T12:07:20.776Z,102241.03
2019-04-21T12:10:25.165Z,102232.27
2019-04-21T12:13:40.318Z,102225.94
2019-04-21T12:16:44.980Z,102222.88
2019-04-21T12:19:50.658Z,102223.78
2019-04-21T12:22:55.428Z,102213.12
2019-04-21T12:26:01.079Z,102206.59
2019-04-21T12:29:06.013Z,102205.84
2019-04-21T12:32:28.407Z,102193.39
2019-04-21T12:35:33.543Z,102185.55
2019-04-21T12:38:44.658Z,102181.64
2019-04-21T12:41:44.657Z,102186.05
2019-04-21T12:44:49.529Z,102170.56
2019-04-21T12:47:54.052Z,102175.83
2019-04-21T12:50:59.811Z,102168.28
2019-04-21T12:54:08.101Z,102165.52
2019-04-21T12:57:13.804Z,102171.00
2019-04-21T13:00:20.782Z,102160.31
2019-04-21T13:03:26.560Z,102147.08
2019-04-21T13:06:31.805Z,102147.61
2019-04-21T13:09:37.550Z,102130.96
2019-04-21T13:12:43.787Z,102133.11
2019-04-21T13:15:49.838Z,102126.23
2019-04-21T13:18:55.379Z,102122.41
2019-04-21T13:22:00.210Z,102117.70
2019-04-21T13:25:07.625Z,102117.48
2019-04-21T13:28:12.556Z,102113.84
2019-04-21T13:31:22.352Z,102105.09
2019-04-21T13:34:35.908Z,102109.28
2019-04-21T13:37:52.658Z,102109.19
2019-04-21T13:41:36.701Z,102104.88
2019-04-21T13:44:28.942Z,102096.45
2019-04-21T13:47:34.674Z,102086.83
2019-04-21T13:50:59.534Z,102085.80
2019-04-21T13:54:07.282Z,102090.17
2019-04-21T13:57:12.516Z,102078.92
2019-04-21T14:00:19.709Z,102076.34
2019-04-21T14:03:26.746Z,102073.95
2019-04-21T14:06:34.537Z,102067.73
2019-04-21T14:09:48.949Z,102071.05
2019-04-21T14:12:46.703Z,102065.43
2019-04-21T14:15:51.882Z,102066.55
2019-04-21T14:18:57.207Z,102054.95
2019-04-21T14:22:03.438Z,102056.63
2019-04-21T14:25:09.943Z,102055.14
2019-04-21T14:28:15.648Z,102041.13
2019-04-21T14:31:22.213Z,102040.99
2019-04-21T14:34:28.038Z,102040.35
2019-04-21T14:37:32.968Z,102032.23
2019-04-21T14:40:38.796Z,102035.44
2019-04-21T14:43:43.922Z,102027.27
2019-04-21T14:47:25.451Z,102029.76
2019-04-21T14:50:52.480Z,102020.53
2019-04-21T14:55:02.771Z,102024.11
2019-04-21T14:57:21.472Z,102017.44
2019-04-21T15:00:31.266Z,102016.68
2019-04-21T15:03:37.559Z,102014.14
2019-04-21T15:06:43.291Z,102008.58
2019-04-21T15:10:00.726Z,102007.37
2019-04-21T15:12:56.009Z,102005.33
2019-04-21T15:16:02.655Z,102002.59
2019-04-21T15:19:08.650Z,102006.77
2019-04-21T15:22:14.502Z,102002.50
2019-04-21T15:25:20.168Z,101999.30
2019-04-21T15:28:28.379Z,101998.92
2019-04-21T15:31:34.817Z,101998.59
2019-04-21T15:34:40.228Z,101996.61
2019-04-21T15:37:46.335Z,101993.82
2019-04-21T15:40:56.059Z,101986.42
2019-04-21T15:44:00.621Z,101980.02
2019-04-21T15:47:04.345Z,101978.91
2019-04-21T15:50:15.507Z,101976.02
2019-04-21T15:53:19.373Z,101975.56
2019-04-21T15:56:32.994Z,101974.10
2019-04-21T16:00:02.815Z,101960.73
2019-04-21T16:03:08.713Z,101968.31
2019-04-21T16:06:19.420Z,101959.52
2019-04-21T16:12:53.806Z,101951.38
2019-04-21T16:15:56.624Z,101947.81
2019-04-21T16:19:01.426Z,101955.08
2019-04-21T16:22:06.595Z,101958.19
2019-04-21T16:25:12.872Z,101951.82
2019-04-21T16:28:21.673Z,101956.48
2019-04-21T16:31:27.918Z,101948.33
2019-04-21T16:34:40.335Z,101956.59
2019-04-21T16:37:41.597Z,101951.03
2019-04-21T16:40:55.566Z,101950.46
2019-04-21T16:43:53.299Z,101934.63
2019-04-21T16:46:59.320Z,101935.48
2019-04-21T16:50:05.572Z,101930.33
2019-04-21T16:53:19.909Z,101930.48
2019-04-21T16:56:54.005Z,101934.03
2019-04-21T17:00:04.408Z,101920.68
2019-04-21T17:03:10.448Z,101918.52
2019-04-21T17:06:15.294Z,101920.45
2019-04-21T17:09:20.947Z,101918.26
2019-04-21T17:12:26.808Z,101915.99
2019-04-21T17:15:51.484Z,101917.40
2019-04-21T17:18:51.389Z,101915.27
2019-04-21T17:21:45.748Z,101917.23
2019-04-21T17:24:53.168Z,101920.22
2019-04-21T17:27:58.747Z,101917.39
2019-04-21T17:31:04.689Z,101915.33
2019-04-21T17:34:14.507Z,101920.23
2019-04-21T17:37:17.242Z,101913.28
2019-04-21T17:40:26.313Z,101914.79
2019-04-21T17:43:31.971Z,101909.27
2019-04-21T17:46:45.860Z,101911.81
2019-04-21T17:49:49.124Z,101914.30
2019-04-21T17:53:03.442Z,101914.41
2019-04-21T17:56:23.410Z,101922.39
2019-04-21T17:59:44.785Z,101915.98
2019-04-21T18:02:41.359Z,101916.45
2019-04-21T18:05:42.418Z,101922.67
2019-04-21T18:09:15.571Z,101919.00
2019-04-21T18:12:26.238Z,101912.52
2019-04-21T18:15:35.981Z,101913.74
2019-04-21T18:18:26.554Z,101911.27
2019-04-21T18:21:59.881Z,101920.05
2019-04-21T18:25:28.374Z,101913.23
2019-04-21T18:28:26.253Z,101919.03
2019-04-21T18:31:42.697Z,101912.17
2019-04-21T18:35:05.070Z,101923.34
2019-04-21T18:38:22.571Z,101924.67
2019-04-21T18:41:28.726Z,101903.41
2019-04-21T18:45:34.357Z,101903.41
2019-04-21T18:48:39.856Z,101914.38
2019-04-21T18:52:19.376Z,101914.38
2019-04-21T18:55:28.205Z,101917.09
2019-04-21T18:58:26.663Z,101921.45
2019-04-21T19:01:36.568Z,101928.94
2019-04-21T19:04:43.141Z,101928.94
2019-04-21T19:08:10.499Z,101929.53
2019-04-21T19:11:18.912Z,101930.45
2019-04-21T19:14:31.695Z,101934.06
2019-04-21T19:20:48.667Z,101923.84
2019-04-21T19:24:07.201Z,101930.01
2019-04-21T19:27:04.592Z,101930.01
2019-04-21T19:30:38.481Z,101933.16
2019-04-21T19:33:21.567Z,101933.16
2019-04-21T19:36:13.399Z,101930.91
2019-04-21T19:39:34.957Z,101926.54
2019-04-21T19:42:40.788Z,101930.23
2019-04-21T19:45:54.050Z,101928.59
2019-04-21T19:49:10.330Z,101928.81
2019-04-21T19:52:03.998Z,101928.81
2019-04-21T19:55:04.571Z,101920.48
2019-04-21T19:58:12.699Z,101915.61
2019-04-21T20:01:19.347Z,101912.04
2019-04-21T20:04:34.329Z,101904.01
2019-04-21T20:07:49.576Z,101907.09
2019-04-21T20:11:03.860Z,101908.86
2019-04-21T20:14:37.630Z,101910.20
2019-04-21T20:17:16.525Z,101911.05
2019-04-21T20:20:11.265Z,101907.06
2019-04-21T20:23:26.132Z,101902.66
2019-04-21T20:26:41.585Z,101902.23
2019-04-21T20:30:07.131Z,101901.77
2019-04-21T20:37:31.515Z,101893.36
2019-04-21T20:40:53.604Z,101895.55
2019-04-21T20:44:17.195Z,101891.17
2019-04-21T20:47:16.048Z,101887.20
2019-04-21T20:50:27.496Z,101883.24
2019-04-21T20:53:41.549Z,101882.36
2019-04-21T20:56:57.558Z,101878.82
2019-04-21T21:00:37.185Z,101884.19
2019-04-21T21:03:50.189Z,101884.63
2019-04-21T21:07:06.190Z,101882.47
2019-04-21T21:10:20.895Z,101886.95
2019-04-21T21:13:31.891Z,101880.38
2019-04-21T21:16:46.371Z,101885.31
2019-04-21T21:20:14.517Z,101884.50
2019-04-21T21:23:11.798Z,101887.25
2019-04-21T21:26:38.461Z,101883.77
2019-04-21T21:29:49.936Z,101892.69
2019-04-21T21:33:11.356Z,101892.28
2019-04-21T21:36:20.983Z,101891.44
2019-04-21T21:39:21.834Z,101883.92
2019-04-21T21:42:25.899Z,101877.75
2019-04-21T21:45:30.374Z,101883.95
2019-04-21T21:51:49.978Z,101871.61
2019-04-21T21:54:51.917Z,101876.48
2019-04-21T21:58:02.466Z,101877.37
2019-04-21T22:01:14.783Z,101877.83
2019-04-21T22:04:26.883Z,101880.02
2019-04-21T22:07:33.177Z,101874.27
2019-04-21T22:10:39.193Z,101874.28
2019-04-21T22:13:54.737Z,101872.95
2019-04-21T22:17:10.961Z,101871.63
2019-04-21T22:20:22.522Z,101868.08
2019-04-21T22:23:24.139Z,101866.75
2019-04-21T22:26:21.148Z,101867.15
2019-04-21T22:29:38.171Z,101868.00
2019-04-21T22:32:50.271Z,101858.24
2019-04-21T22:35:59.212Z,101858.23
2019-04-21T22:39:21.013Z,101862.66
2019-04-21T22:42:26.610Z,101855.12
2019-04-21T22:45:45.403Z,101853.37
2019-04-21T22:48:59.726Z,101850.74
2019-04-21T22:52:11.288Z,101846.31
2019-04-21T22:56:05.774Z,101841.01
2019-04-21T22:59:15.073Z,101834.39
2019-04-21T23:06:00.575Z,101842.39
2019-04-21T23:09:04.557Z,101849.02
2019-04-21T23:12:12.469Z,101847.72
2019-04-21T23:15:34.532Z,101846.37
2019-04-21T23:18:46.372Z,101848.61
2019-04-21T23:25:39.244Z,101849.05
2019-04-21T23:28:56.813Z,101843.29
2019-04-21T23:32:12.360Z,101843.29
2019-04-21T23:35:09.260Z,101842.84
2019-04-21T23:38:10.969Z,101843.77
2019-04-21T23:41:21.486Z,101846.40
2019-04-21T23:52:06.286Z,101847.31
2019-04-21T23:55:29.424Z,101846.00
2019-04-21T23:58:38.869Z,101847.77
